createdAt,value
2022-11-07T00:01:46.211Z,87.82
2022-11-07T00:04:13.836Z,87.89
2022-11-07T00:06:41.158Z,87.67
2022-11-07T00:09:08.488Z,87.71
2022-11-07T00:11:35.743Z,87.49
2022-11-07T00:14:03.028Z,87.76
2022-11-07T00:16:30.640Z,88.06
2022-11-07T00:18:57.885Z,88.08
2022-11-07T00:21:25.179Z,87.80
2022-11-07T00:23:52.427Z,87.19
2022-11-07T00:26:20.673Z,86.59
2022-11-07T00:28:48.082Z,86.89
2022-11-07T00:31:16.505Z,86.98
2022-11-07T00:33:44.383Z,86.88
2022-11-07T00:36:20.131Z,86.73
2022-11-07T00:38:47.396Z,86.81
2022-11-07T00:41:15.271Z,86.37
2022-11-07T00:43:42.595Z,86.49
2022-11-07T00:46:11.583Z,86.62
2022-11-07T00:48:39.205Z,87.72
2022-11-07T00:51:12.528Z,87.58
2022-11-07T00:53:40.140Z,87.07
2022-11-07T00:56:09.932Z,86.73
2022-11-07T00:58:37.712Z,86.66
2022-11-07T01:01:26.999Z,87.07
2022-11-07T01:04:13.027Z,86.97
2022-11-07T01:06:42.777Z,86.66
2022-11-07T01:09:12.055Z,86.50
2022-11-07T01:11:40.003Z,86.55
2022-11-07T01:14:08.177Z,86.43
2022-11-07T01:16:35.592Z,86.40
2022-11-07T01:19:04.049Z,86.18
2022-11-07T01:21:31.393Z,86.40
2022-11-07T01:24:00.166Z,86.58
2022-11-07T01:26:27.567Z,86.28
2022-11-07T01:28:54.925Z,86.07
2022-11-07T01:31:22.153Z,85.67
2022-11-07T01:33:49.349Z,85.24
2022-11-07T01:36:18.155Z,85.44
2022-11-07T01:38:48.484Z,86.83
2022-11-07T01:41:21.659Z,86.26
2022-11-07T01:43:55.107Z,86.11
2022-11-07T01:46:26.355Z,85.85
2022-11-07T01:48:58.317Z,85.61
2022-11-07T01:51:26.598Z,85.35
2022-11-07T01:53:54.793Z,85.54
2022-11-07T01:56:24.904Z,85.41
2022-11-07T01:58:52.448Z,85.47
2022-11-07T02:01:20.139Z,85.35
2022-11-07T02:03:47.762Z,85.26
2022-11-07T02:06:20.317Z,85.16
2022-11-07T02:08:48.816Z,86.02
2022-11-07T02:11:16.415Z,86.17
2022-11-07T02:13:43.669Z,86.15
2022-11-07T02:16:11.079Z,86.02
2022-11-07T02:18:40.246Z,85.78
2022-11-07T02:21:14.424Z,85.57
2022-11-07T02:23:50.057Z,85.35
2022-11-07T02:26:17.547Z,85.39
2022-11-07T02:28:46.441Z,85.54
2022-11-07T02:31:13.779Z,85.24
2022-11-07T02:33:41.863Z,85.14
2022-11-07T02:36:14.565Z,86.21
2022-11-07T02:38:42.236Z,84.95
2022-11-07T02:41:12.653Z,84.48
2022-11-07T02:43:43.253Z,84.69
2022-11-07T02:46:11.955Z,84.76
2022-11-07T02:48:51.246Z,84.41
2022-11-07T02:51:18.521Z,84.61
2022-11-07T02:53:46.660Z,85.15
2022-11-07T02:56:13.939Z,84.58
2022-11-07T02:58:41.447Z,84.46
2022-11-07T03:01:09.140Z,84.85
2022-11-07T03:03:44.409Z,84.87
2022-11-07T03:06:14.186Z,85.18
2022-11-07T03:08:41.873Z,84.78
2022-11-07T03:11:09.836Z,84.80
2022-11-07T03:13:37.484Z,84.63
2022-11-07T03:16:06.782Z,84.53
2022-11-07T03:18:34.953Z,84.35
2022-11-07T03:21:02.888Z,84.58
2022-11-07T03:23:30.560Z,84.13
2022-11-07T03:25:57.850Z,84.51
2022-11-07T03:28:25.156Z,84.73
2022-11-07T03:30:52.759Z,85.04
2022-11-07T03:33:20.021Z,84.70
2022-11-07T03:35:47.321Z,84.94
2022-11-07T03:38:14.629Z,84.75
2022-11-07T03:40:41.967Z,85.00
2022-11-07T03:43:09.234Z,84.46
2022-11-07T03:45:36.459Z,84.84
2022-11-07T03:48:03.816Z,85.10
2022-11-07T03:50:31.048Z,84.65
2022-11-07T03:52:58.240Z,83.78
2022-11-07T03:55:25.555Z,84.50
2022-11-07T03:57:52.795Z,84.52
2022-11-07T04:00:20.339Z,84.27
2022-11-07T04:02:47.819Z,84.53
2022-11-07T04:05:15.203Z,84.57
2022-11-07T04:07:42.499Z,84.58
2022-11-07T04:10:09.902Z,84.84
2022-11-07T04:12:55.672Z,84.81
2022-11-07T04:15:41.679Z,85.03
2022-11-07T04:18:08.970Z,84.93
2022-11-07T04:20:36.316Z,84.62
2022-11-07T04:23:03.557Z,84.93
2022-11-07T04:25:49.434Z,85.16
2022-11-07T04:28:17.870Z,84.18
2022-11-07T04:30:45.287Z,85.33
2022-11-07T04:33:12.874Z,84.78
2022-11-07T04:35:40.226Z,85.20
2022-11-07T04:38:07.493Z,85.15
2022-11-07T04:40:34.708Z,85.63
2022-11-07T04:43:08.851Z,85.88
2022-11-07T04:45:37.294Z,85.38
2022-11-07T04:48:05.296Z,85.29
2022-11-07T04:50:32.599Z,85.19
2022-11-07T04:53:00.033Z,85.05
2022-11-07T04:55:30.708Z,85.08
2022-11-07T04:57:58.479Z,84.82
2022-11-07T05:00:25.909Z,84.67
2022-11-07T05:02:53.407Z,84.55
2022-11-07T05:05:20.735Z,84.40
2022-11-07T05:07:48.102Z,84.89
2022-11-07T05:10:22.673Z,84.70
2022-11-07T05:12:50.129Z,85.14
2022-11-07T05:15:18.255Z,85.27
2022-11-07T05:17:46.123Z,84.72
2022-11-07T05:20:22.478Z,84.35
2022-11-07T05:23:08.145Z,84.41
2022-11-07T05:25:35.479Z,84.69
2022-11-07T05:28:02.734Z,83.95
2022-11-07T05:30:29.933Z,84.54
2022-11-07T05:32:57.184Z,83.81
2022-11-07T05:35:24.525Z,83.82
2022-11-07T05:37:51.772Z,83.94
2022-11-07T05:40:19.135Z,84.37
2022-11-07T05:42:46.293Z,84.76
2022-11-07T05:45:13.567Z,84.59
2022-11-07T05:47:41.133Z,83.41
2022-11-07T05:50:08.785Z,84.31
2022-11-07T05:52:36.086Z,84.82
2022-11-07T05:55:03.552Z,84.74
2022-11-07T05:57:31.255Z,84.26
2022-11-07T05:59:58.582Z,82.61
2022-11-07T06:02:25.938Z,82.98
2022-11-07T06:04:53.328Z,82.76
2022-11-07T06:07:20.603Z,83.75
2022-11-07T06:09:48.842Z,82.97
2022-11-07T06:12:16.187Z,82.71
2022-11-07T06:14:43.951Z,83.30
2022-11-07T06:17:11.241Z,83.05
2022-11-07T06:19:38.619Z,83.23
2022-11-07T06:22:05.861Z,83.31
2022-11-07T06:24:33.262Z,82.96
2022-11-07T06:27:01.379Z,83.01
2022-11-07T06:29:28.669Z,83.37
2022-11-07T06:31:56.004Z,83.18
2022-11-07T06:34:23.270Z,83.74
2022-11-07T06:37:02.501Z,84.20
2022-11-07T06:39:30.407Z,83.71
2022-11-07T06:41:57.630Z,83.53
2022-11-07T06:44:24.863Z,83.13
2022-11-07T06:46:52.114Z,83.47
2022-11-07T06:49:19.392Z,83.51
2022-11-07T06:51:48.056Z,83.13
2022-11-07T06:54:15.542Z,83.47
2022-11-07T06:56:42.947Z,83.41
2022-11-07T06:59:10.347Z,83.16
2022-11-07T07:01:37.792Z,83.05
2022-11-07T07:04:05.579Z,83.64
2022-11-07T07:06:32.870Z,84.07
2022-11-07T07:09:00.129Z,84.16
2022-11-07T07:11:27.522Z,83.91
2022-11-07T07:14:01.147Z,84.32
2022-11-07T07:16:29.484Z,83.91
2022-11-07T07:18:56.909Z,83.89
2022-11-07T07:21:24.142Z,84.26
2022-11-07T07:23:51.509Z,84.11
2022-11-07T07:26:18.837Z,84.17
2022-11-07T07:28:46.371Z,84.24
2022-11-07T07:31:13.495Z,84.11
2022-11-07T07:33:44.196Z,83.78
2022-11-07T07:36:16.510Z,84.50
2022-11-07T07:38:47.242Z,86.88
2022-11-07T07:41:14.619Z,87.67
2022-11-07T07:43:41.949Z,87.27
2022-11-07T07:46:10.474Z,86.02
2022-11-07T07:48:37.750Z,85.65
2022-11-07T07:51:05.224Z,84.07
2022-11-07T07:53:32.439Z,83.35
2022-11-07T07:56:00.461Z,82.31
2022-11-07T07:58:27.831Z,81.58
2022-11-07T08:00:58.746Z,80.75
2022-11-07T08:03:29.395Z,80.99
2022-11-07T08:06:02.773Z,81.05
2022-11-07T08:08:35.276Z,81.08
2022-11-07T08:11:07.054Z,80.80
2022-11-07T08:13:34.575Z,80.20
2022-11-07T08:16:03.848Z,80.63
2022-11-07T08:18:31.239Z,81.18
2022-11-07T08:20:58.913Z,81.05
2022-11-07T08:23:26.136Z,80.80
2022-11-07T08:25:55.725Z,80.88
2022-11-07T08:28:26.998Z,80.55
2022-11-07T08:31:08.226Z,78.77
2022-11-07T08:33:36.241Z,79.71
2022-11-07T08:36:05.212Z,80.24
2022-11-07T08:38:33.898Z,79.57
2022-11-07T08:41:01.541Z,78.89
2022-11-07T08:43:28.809Z,79.22
2022-11-07T08:45:56.285Z,78.94
2022-11-07T08:48:23.866Z,78.72
2022-11-07T08:50:52.781Z,78.48
2022-11-07T08:53:20.563Z,78.62
2022-11-07T08:55:48.241Z,78.47
2022-11-07T08:58:16.082Z,78.67
2022-11-07T09:00:43.717Z,77.94
2022-11-07T09:06:01.855Z,78.28
2022-11-07T09:08:29.246Z,77.87
2022-11-07T09:11:01.081Z,78.21
2022-11-07T09:13:28.463Z,77.58
2022-11-07T09:15:59.710Z,76.68
2022-11-07T09:18:29.122Z,77.18
2022-11-07T09:21:00.631Z,77.88
2022-11-07T09:23:28.160Z,78.28
2022-11-07T09:25:58.708Z,77.75
2022-11-07T09:28:25.953Z,78.02
2022-11-07T09:30:54.478Z,78.55
2022-11-07T09:33:22.689Z,77.88
2022-11-07T09:35:50.579Z,78.04
2022-11-07T09:38:18.107Z,77.82
2022-11-07T09:41:05.365Z,77.64
2022-11-07T09:43:44.201Z,77.76
2022-11-07T09:46:23.703Z,77.38
2022-11-07T09:48:56.081Z,76.99
2022-11-07T09:51:38.755Z,76.07
2022-11-07T09:54:10.801Z,75.73
2022-11-07T09:56:41.303Z,75.86
2022-11-07T09:59:16.338Z,75.51
2022-11-07T10:01:43.754Z,75.24
2022-11-07T10:04:24.671Z,74.51
2022-11-07T10:07:07.031Z,74.30
2022-11-07T10:09:52.519Z,73.80
2022-11-07T10:12:50.485Z,75.27
2022-11-07T10:15:36.537Z,75.06
2022-11-07T10:18:09.625Z,74.67
2022-11-07T10:21:22.972Z,74.38
2022-11-07T10:24:25.646Z,74.54
2022-11-07T10:26:53.207Z,74.49
2022-11-07T10:29:22.149Z,73.69
2022-11-07T10:32:12.476Z,72.62
2022-11-07T10:35:24.510Z,72.72
2022-11-07T10:37:56.247Z,72.39
2022-11-07T10:40:24.329Z,72.92
2022-11-07T10:42:53.077Z,72.60
2022-11-07T10:45:20.483Z,72.89
2022-11-07T10:48:02.931Z,72.05
2022-11-07T10:50:30.638Z,72.33
2022-11-07T10:53:03.754Z,72.56
2022-11-07T10:55:42.722Z,72.84
2022-11-07T10:58:19.255Z,73.10
2022-11-07T11:01:04.119Z,73.19
2022-11-07T11:03:44.935Z,72.89
2022-11-07T11:06:19.318Z,72.73
2022-11-07T11:08:49.575Z,72.42
2022-11-07T11:11:21.804Z,71.03
2022-11-07T11:13:49.581Z,71.06
2022-11-07T11:16:22.776Z,71.80
2022-11-07T11:18:51.815Z,71.67
2022-11-07T11:21:19.160Z,71.09
2022-11-07T11:23:46.814Z,70.66
2022-11-07T11:26:30.737Z,70.80
2022-11-07T11:29:04.703Z,70.40
2022-11-07T11:31:52.092Z,69.98
2022-11-07T11:34:54.793Z,69.57
2022-11-07T11:37:23.985Z,69.13
2022-11-07T11:40:02.464Z,69.66
2022-11-07T11:42:54.902Z,69.30
2022-11-07T11:45:48.876Z,67.99
2022-11-07T11:48:29.108Z,68.40
2022-11-07T11:50:57.372Z,68.55
2022-11-07T11:53:24.590Z,67.77
2022-11-07T11:56:06.915Z,67.64
2022-11-07T11:58:56.170Z,67.91
2022-11-07T12:01:37.722Z,67.49
2022-11-07T12:04:37.537Z,66.98
2022-11-07T12:07:38.922Z,67.05
2022-11-07T12:10:47.731Z,67.61
2022-11-07T12:13:22.437Z,67.46
2022-11-07T12:16:08.461Z,67.52
2022-11-07T12:18:57.361Z,67.00
2022-11-07T12:21:38.723Z,66.78
2022-11-07T12:24:24.662Z,67.09
2022-11-07T12:27:00.963Z,67.75
2022-11-07T12:29:40.536Z,67.75
2022-11-07T12:32:39.009Z,67.51
2022-11-07T12:35:18.493Z,67.52
2022-11-07T12:38:16.643Z,67.76
2022-11-07T12:41:12.928Z,67.46
2022-11-07T12:44:04.941Z,67.00
2022-11-07T12:46:57.048Z,66.95
2022-11-07T12:49:57.721Z,67.44
2022-11-07T12:52:34.433Z,67.66
2022-11-07T12:55:08.272Z,67.50
2022-11-07T12:57:38.410Z,67.18
2022-11-07T13:00:17.602Z,66.83
2022-11-07T13:03:21.222Z,65.91
2022-11-07T13:06:13.665Z,65.77
2022-11-07T13:08:50.528Z,65.98
2022-11-07T13:11:31.967Z,66.39
2022-11-07T13:14:01.492Z,66.40
2022-11-07T13:16:31.521Z,66.11
2022-11-07T13:19:21.194Z,66.90
2022-11-07T13:22:18.371Z,66.81
2022-11-07T13:25:09.388Z,66.03
2022-11-07T13:27:41.490Z,64.38
2022-11-07T13:30:17.386Z,64.58
2022-11-07T13:32:49.854Z,65.08
2022-11-07T13:35:23.078Z,64.26
2022-11-07T13:37:56.959Z,63.63
2022-11-07T13:40:35.153Z,63.91
2022-11-07T13:43:12.647Z,63.53
2022-11-07T13:45:45.972Z,63.15
2022-11-07T13:48:18.619Z,62.00
2022-11-07T13:50:53.451Z,62.26
2022-11-07T13:53:29.919Z,61.63
2022-11-07T13:56:10.489Z,61.72
2022-11-07T13:58:39.460Z,61.02
2022-11-07T14:01:11.524Z,60.78
2022-11-07T14:03:39.487Z,60.50
2022-11-07T14:06:07.391Z,61.19
2022-11-07T14:08:38.313Z,61.68
2022-11-07T14:11:15.558Z,61.78
2022-11-07T14:13:42.858Z,62.93
2022-11-07T14:16:24.652Z,63.48
2022-11-07T14:18:54.370Z,63.63
2022-11-07T14:21:35.850Z,64.26
2022-11-07T14:24:04.232Z,64.49
2022-11-07T14:26:37.854Z,65.22
2022-11-07T14:29:09.043Z,65.94
2022-11-07T14:31:38.202Z,65.96
2022-11-07T14:34:18.262Z,66.37
2022-11-07T14:36:56.397Z,66.60
2022-11-07T14:39:25.701Z,67.22
2022-11-07T14:41:55.201Z,67.51
2022-11-07T14:44:53.325Z,68.25
2022-11-07T14:47:28.227Z,68.12
2022-11-07T14:49:56.184Z,67.85
2022-11-07T14:52:27.752Z,68.15
2022-11-07T14:55:01.196Z,68.71
2022-11-07T14:57:28.629Z,69.19
2022-11-07T14:59:56.127Z,70.68
2022-11-07T15:02:31.507Z,70.27
2022-11-07T15:05:09.592Z,71.02
2022-11-07T15:07:47.148Z,71.82
2022-11-07T15:10:24.724Z,71.97
2022-11-07T15:12:54.802Z,72.26
2022-11-07T15:15:26.366Z,72.83
2022-11-07T15:17:56.244Z,73.55
2022-11-07T15:20:36.004Z,72.81
2022-11-07T15:23:13.006Z,73.87
2022-11-07T15:26:03.038Z,73.42
2022-11-07T15:28:43.456Z,73.55
2022-11-07T15:31:30.265Z,73.20
2022-11-07T15:33:58.758Z,72.47
2022-11-07T15:36:26.109Z,71.79
2022-11-07T15:38:54.144Z,71.49
2022-11-07T15:41:21.375Z,71.65
2022-11-07T15:43:48.883Z,71.75
2022-11-07T15:46:26.793Z,71.29
2022-11-07T15:48:54.406Z,71.02
2022-11-07T15:51:35.986Z,71.39
2022-11-07T15:54:03.423Z,71.60
2022-11-07T15:56:30.746Z,71.75
2022-11-07T15:58:59.365Z,72.19
2022-11-07T16:01:26.868Z,72.01
2022-11-07T16:03:55.381Z,72.11
2022-11-07T16:06:33.681Z,71.99
2022-11-07T16:09:01.246Z,72.88
2022-11-07T16:11:28.566Z,71.95
2022-11-07T16:14:14.761Z,71.49
2022-11-07T16:16:44.720Z,71.50
2022-11-07T16:19:30.648Z,71.45
2022-11-07T16:21:57.885Z,71.81
2022-11-07T16:24:25.140Z,71.43
2022-11-07T16:26:52.469Z,71.29
2022-11-07T16:29:26.567Z,70.89
2022-11-07T16:31:53.802Z,70.92
2022-11-07T16:34:21.288Z,71.69
2022-11-07T16:36:48.872Z,71.41
2022-11-07T16:39:21.482Z,71.33
2022-11-07T16:41:49.030Z,71.32
2022-11-07T16:44:20.405Z,71.35
2022-11-07T16:46:50.744Z,71.04
2022-11-07T16:49:30.647Z,71.29
2022-11-07T16:51:58.639Z,71.14
2022-11-07T16:54:25.974Z,71.72
2022-11-07T16:56:57.277Z,71.72
2022-11-07T16:59:24.700Z,71.44
2022-11-07T17:01:52.454Z,71.75
2022-11-07T17:04:19.928Z,71.51
2022-11-07T17:06:47.634Z,71.82
2022-11-07T17:09:20.580Z,71.64
2022-11-07T17:11:47.805Z,71.69
2022-11-07T17:14:15.080Z,71.73
2022-11-07T17:16:44.366Z,71.78
2022-11-07T17:19:12.912Z,71.69
2022-11-07T17:21:46.148Z,71.67
2022-11-07T17:24:13.920Z,71.01
2022-11-07T17:26:41.271Z,71.24
2022-11-07T17:29:12.197Z,71.12
2022-11-07T17:31:40.440Z,71.13
2022-11-07T17:34:08.079Z,71.01
2022-11-07T17:36:46.456Z,70.63
2022-11-07T17:39:19.419Z,71.12
2022-11-07T17:41:48.972Z,71.41
2022-11-07T17:44:17.682Z,71.18
2022-11-07T17:46:47.112Z,71.00
2022-11-07T17:49:17.601Z,70.82
2022-11-07T17:51:45.227Z,70.77
2022-11-07T17:54:13.964Z,71.00
2022-11-07T17:56:41.878Z,71.33
2022-11-07T17:59:13.079Z,71.47
2022-11-07T18:01:41.053Z,71.53
2022-11-07T18:04:10.033Z,71.77
2022-11-07T18:06:40.520Z,72.41
2022-11-07T18:09:11.323Z,73.25
2022-11-07T18:11:38.752Z,73.50
2022-11-07T18:14:05.998Z,73.17
2022-11-07T18:16:34.661Z,73.54
2022-11-07T18:19:02.655Z,73.92
2022-11-07T18:21:29.995Z,74.71
2022-11-07T18:23:57.924Z,74.69
2022-11-07T18:26:30.858Z,73.74
2022-11-07T18:29:04.017Z,73.76
2022-11-07T18:31:31.569Z,74.27
2022-11-07T18:34:01.071Z,74.32
2022-11-07T18:36:30.748Z,74.50
2022-11-07T18:39:04.941Z,74.36
2022-11-07T18:41:32.388Z,74.09
2022-11-07T18:44:04.507Z,73.88
2022-11-07T18:46:32.663Z,73.84
2022-11-07T18:49:00.092Z,73.75
2022-11-07T18:51:27.671Z,73.68
2022-11-07T18:53:55.198Z,74.09
2022-11-07T18:56:22.451Z,75.12
2022-11-07T18:58:49.943Z,75.29
2022-11-07T19:01:19.555Z,74.87
2022-11-07T19:03:47.191Z,74.21
2022-11-07T19:06:18.734Z,73.98
2022-11-07T19:08:50.305Z,74.43
2022-11-07T19:11:20.179Z,74.52
2022-11-07T19:13:47.751Z,74.63
2022-11-07T19:16:17.143Z,75.08
2022-11-07T19:18:49.088Z,74.89
2022-11-07T19:21:27.722Z,74.98
2022-11-07T19:23:55.156Z,75.02
2022-11-07T19:26:22.771Z,74.89
2022-11-07T19:28:50.549Z,74.64
2022-11-07T19:31:17.803Z,74.60
2022-11-07T19:33:45.382Z,74.34
2022-11-07T19:36:15.375Z,74.60
2022-11-07T19:38:43.184Z,74.61
2022-11-07T19:41:11.219Z,74.86
2022-11-07T19:43:39.977Z,74.90
2022-11-07T19:46:13.173Z,74.70
2022-11-07T19:48:40.485Z,74.41
2022-11-07T19:51:09.377Z,74.39
2022-11-07T19:53:36.869Z,74.97
2022-11-07T19:56:09.124Z,75.21
2022-11-07T19:58:37.539Z,75.37
2022-11-07T20:01:16.877Z,75.87
2022-11-07T20:03:45.509Z,76.35
2022-11-07T20:06:14.234Z,76.45
2022-11-07T20:08:43.397Z,76.40
2022-11-07T20:11:13.964Z,77.04
2022-11-07T20:13:41.871Z,77.95
2022-11-07T20:16:09.600Z,77.50
2022-11-07T20:18:37.874Z,77.46
2022-11-07T20:21:12.806Z,78.23
2022-11-07T20:23:41.713Z,79.96
2022-11-07T20:26:11.113Z,80.34
2022-11-07T20:28:38.823Z,80.48
2022-11-07T20:31:18.830Z,79.89
2022-11-07T20:33:46.358Z,80.01
2022-11-07T20:36:14.950Z,80.58
2022-11-07T20:38:43.802Z,80.91
2022-11-07T20:41:12.493Z,80.17
2022-11-07T20:43:39.938Z,79.58
2022-11-07T20:46:09.987Z,80.26
2022-11-07T20:48:37.998Z,79.81
2022-11-07T20:51:10.736Z,80.24
2022-11-07T20:53:38.840Z,80.36
2022-11-07T20:56:06.988Z,80.60
2022-11-07T20:58:36.039Z,80.56
2022-11-07T21:01:04.525Z,80.32
2022-11-07T21:03:33.242Z,80.44
2022-11-07T21:06:01.080Z,80.13
2022-11-07T21:08:31.859Z,80.81
2022-11-07T21:11:01.835Z,81.26
2022-11-07T21:13:32.344Z,81.36
2022-11-07T21:16:02.492Z,81.25
2022-11-07T21:18:29.892Z,81.21
2022-11-07T21:21:11.605Z,81.11
2022-11-07T21:23:39.489Z,82.47
2022-11-07T21:26:11.005Z,82.97
2022-11-07T21:28:40.553Z,83.29
2022-11-07T21:31:10.818Z,84.21
2022-11-07T21:33:39.022Z,85.98
2022-11-07T21:36:19.831Z,85.09
2022-11-07T21:38:50.586Z,85.09
2022-11-07T21:41:18.007Z,84.51
2022-11-07T21:43:45.497Z,84.13
2022-11-07T21:46:15.192Z,84.03
2022-11-07T21:48:43.150Z,83.30
2022-11-07T21:51:15.237Z,83.03
2022-11-07T21:53:42.673Z,83.49
2022-11-07T21:56:17.686Z,84.12
2022-11-07T21:58:45.126Z,84.53
2022-11-07T22:01:12.429Z,85.14
2022-11-07T22:04:10.682Z,84.58
2022-11-07T22:06:26.904Z,83.88
2022-11-07T22:08:54.164Z,83.04
2022-11-07T22:11:21.557Z,83.59
2022-11-07T22:13:49.089Z,83.57
2022-11-07T22:16:21.036Z,83.61
2022-11-07T22:18:49.262Z,83.45
2022-11-07T22:21:19.433Z,83.08
2022-11-07T22:23:46.768Z,82.96
2022-11-07T22:26:17.504Z,82.74
2022-11-07T22:28:46.287Z,83.21
2022-11-07T22:31:20.440Z,82.85
2022-11-07T22:33:47.971Z,83.10
2022-11-07T22:36:15.560Z,82.60
2022-11-07T22:38:43.177Z,83.47
2022-11-07T22:41:16.087Z,84.35
2022-11-07T22:43:43.387Z,84.89
2022-11-07T22:46:13.268Z,85.04
2022-11-07T22:48:41.415Z,85.11
2022-11-07T22:51:20.120Z,84.71
2022-11-07T22:53:47.719Z,84.30
2022-11-07T22:56:19.905Z,85.33
2022-11-07T22:58:47.746Z,85.67
2022-11-07T23:01:20.557Z,85.75
2022-11-07T23:03:48.488Z,86.09
2022-11-07T23:06:16.650Z,86.06
2022-11-07T23:08:44.414Z,86.50
2022-11-07T23:14:13.130Z,85.86
2022-11-07T23:16:44.073Z,85.84
2022-11-07T23:19:14.161Z,85.26
2022-11-07T23:21:41.824Z,85.04
2022-11-07T23:24:09.655Z,85.56
2022-11-07T23:26:37.346Z,86.76
2022-11-07T23:29:10.763Z,87.30
2022-11-07T23:31:44.374Z,87.28
2022-11-07T23:34:12.446Z,86.98
2022-11-07T23:36:44.274Z,86.65
2022-11-07T23:39:15.132Z,86.97
2022-11-07T23:41:42.919Z,87.94
2022-11-07T23:44:10.759Z,87.61
2022-11-07T23:46:56.995Z,87.71
2022-11-07T23:49:42.790Z,88.07
2022-11-07T23:52:10.030Z,87.17
2022-11-07T23:54:56.196Z,86.95
2022-11-07T23:57:23.478Z,85.88
